^^
Saratoga-Weather Station Historical Data
Daily Summary for May 09, 2021 Units:  Both    English   Metric
Daily Weekly Monthly Yearly Custom
  High: Low: Average:
Temperature: 76.8 °F /  24.9 °C 46.9 °F /  8.3 °C 56.5 °F /  13.6 °C
Dew Point: 57.4 °F /  14.1 °C 45.5 °F /  7.5 °C 50 °F /  10 °C
Humidity: 97% 46% 82%
Wind Speed: 11mph /  17.7km/h - 1.1mph /  1.8km/h
Wind Gust: 16mph /  25.7km/h - -
Wind- - SSE
Pressure: 29.8 in /  1008.8 hPa 29.7 in /  1004.1 hPa -
Precipitation: 0 in /  0.0 mm    
Historical Graphs
 
 
Tabular Data for May 09, 2021
Time Temperature Dew Point Pressure Wind Wind Speed Wind Gust Humidity Rainfall Rate (Hourly) solar
01:37 49.5 °F /  9.7 °C 47.5 °F /  8.6 °C 29.8in /  1008.8hPa Calm     93% 0in /  0.0mm 0 W/m2
01:42 49.3 °F /  9.6 °C 47.3 °F /  8.5 °C 29.8in /  1008.8hPa Calm     93% 0in /  0.0mm 0 W/m2
01:47 49.3 °F /  9.6 °C 47.3 °F /  8.5 °C 29.8in /  1008.8hPa Calm     93% 0in /  0.0mm 0 W/m2
01:52 48.9 °F /  9.4 °C 46.9 °F /  8.3 °C 29.8in /  1008.8hPa Calm     93% 0in /  0.0mm 0 W/m2
01:57 48.9 °F /  9.4 °C 46.9 °F /  8.3 °C 29.8in /  1008.8hPa Calm     93% 0in /  0.0mm 0 W/m2
02:02 48.9 °F /  9.4 °C 46.9 °F /  8.3 °C 29.8in /  1008.5hPa East 2mph /  3.2km/h 2mph /  3.2km/h 93% 0in /  0.0mm 0 W/m2
02:07 48.7 °F /  9.3 °C 46.8 °F /  8.2 °C 29.8in /  1008.5hPa Calm     93% 0in /  0.0mm 0 W/m2
02:12 48.9 °F /  9.4 °C 47.3 °F /  8.5 °C 29.8in /  1008.8hPa ESE 2mph /  3.2km/h 3mph /  4.8km/h 94% 0in /  0.0mm 0 W/m2
02:17 49.5 °F /  9.7 °C 48 °F /  8.9 °C 29.8in /  1008.5hPa Calm     95% 0in /  0.0mm 0 W/m2
02:22 49.6 °F /  9.8 °C 48.2 °F /  9 °C 29.8in /  1008.5hPa Calm   3mph /  4.8km/h 95% 0in /  0.0mm 0 W/m2
02:27 49.8 °F /  9.9 °C 48.2 °F /  9 °C 29.8in /  1008.5hPa Calm     94% 0in /  0.0mm 0 W/m2
02:32 49.8 °F /  9.9 °C 48.2 °F /  9 °C 29.8in /  1008.5hPa Calm     94% 0in /  0.0mm 0 W/m2
02:37 49.6 °F /  9.8 °C 48 °F /  8.9 °C 29.8in /  1008.5hPa Calm     94% 0in /  0.0mm 0 W/m2
02:42 49.5 °F /  9.7 °C 47.8 °F /  8.8 °C 29.8in /  1008.5hPa Calm     94% 0in /  0.0mm 0 W/m2
02:47 49.5 °F /  9.7 °C 47.8 °F /  8.8 °C 29.8in /  1008.5hPa Calm     94% 0in /  0.0mm 0 W/m2
02:52 49.3 °F /  9.6 °C 47.7 °F /  8.7 °C 29.8in /  1008.5hPa Calm     94% 0in /  0.0mm 0 W/m2
02:57 48.9 °F /  9.4 °C 47.3 °F /  8.5 °C 29.8in /  1008.5hPa Calm     94% 0in /  0.0mm 0 W/m2
03:02 48.7 °F /  9.3 °C 47.1 °F /  8.4 °C 29.8in /  1008.1hPa Calm     94% 0in /  0.0mm 0 W/m2
03:07 48.7 °F /  9.3 °C 47.1 °F /  8.4 °C 29.8in /  1008.1hPa Calm     94% 0in /  0.0mm 0 W/m2
03:12 48.6 °F /  9.2 °C 46.9 °F /  8.3 °C 29.8in /  1008.1hPa Calm     94% 0in /  0.0mm 0 W/m2
03:17 48.6 °F /  9.2 °C 46.9 °F /  8.3 °C 29.8in /  1008.1hPa Calm     94% 0in /  0.0mm 0 W/m2
03:22 48.6 °F /  9.2 °C 46.9 °F /  8.3 °C 29.8in /  1008.1hPa Calm     94% 0in /  0.0mm 0 W/m2
03:27 48.4 °F /  9.1 °C 46.8 °F /  8.2 °C 29.8in /  1008.1hPa Calm     94% 0in /  0.0mm 0 W/m2
03:32 48.4 °F /  9.1 °C 46.8 °F /  8.2 °C 29.8in /  1007.8hPa Calm     94% 0in /  0.0mm 0 W/m2
03:37 48.2 °F /  9 °C 46.6 °F /  8.1 °C 29.8in /  1007.8hPa Calm     94% 0in /  0.0mm 0 W/m2
03:42 48 °F /  8.9 °C 46.4 °F /  8 °C 29.8in /  1007.8hPa Calm     94% 0in /  0.0mm 0 W/m2
03:47 48 °F /  8.9 °C 46.6 °F /  8.1 °C 29.8in /  1007.8hPa Calm     95% 0in /  0.0mm 0 W/m2
03:52 48 °F /  8.9 °C 46.6 °F /  8.1 °C 29.8in /  1007.8hPa Calm     95% 0in /  0.0mm 0 W/m2
03:57 48 °F /  8.9 °C 46.6 °F /  8.1 °C 29.8in /  1007.8hPa Calm     95% 0in /  0.0mm 0 W/m2
04:02 47.8 °F /  8.8 °C 46.2 °F /  7.9 °C 29.8in /  1007.5hPa Calm     94% 0in /  0.0mm 0 W/m2
04:07 47.8 °F /  8.8 °C 46.4 °F /  8 °C 29.8in /  1007.5hPa Calm     95% 0in /  0.0mm 0 W/m2
04:12 47.8 °F /  8.8 °C 46.4 °F /  8 °C 29.8in /  1007.5hPa Calm     95% 0in /  0.0mm 0 W/m2
04:17 47.8 °F /  8.8 °C 46.4 °F /  8 °C 29.8in /  1007.5hPa Calm     95% 0in /  0.0mm 0 W/m2
04:22 47.7 °F /  8.7 °C 46.2 °F /  7.9 °C 29.8in /  1007.5hPa Calm     95% 0in /  0.0mm 0 W/m2
04:27 47.7 °F /  8.7 °C 46.2 °F /  7.9 °C 29.8in /  1007.5hPa Calm     95% 0in /  0.0mm 0 W/m2
04:32 47.5 °F /  8.6 °C 46 °F /  7.8 °C 29.8in /  1007.5hPa Calm     95% 0in /  0.0mm 0 W/m2
04:37 47.5 °F /  8.6 °C 46 °F /  7.8 °C 29.8in /  1007.5hPa Calm     95% 0in /  0.0mm 0 W/m2
04:42 47.3 °F /  8.5 °C 45.9 °F /  7.7 °C 29.7in /  1007.1hPa Calm     95% 0in /  0.0mm 0 W/m2
04:47 47.1 °F /  8.4 °C 45.7 °F /  7.6 °C 29.7in /  1007.1hPa Calm     95% 0in /  0.0mm 0 W/m2
04:52 47.1 °F /  8.4 °C 45.7 °F /  7.6 °C 29.7in /  1007.1hPa Calm     95% 0in /  0.0mm 0 W/m2
04:57 46.9 °F /  8.3 °C 45.5 °F /  7.5 °C 29.7in /  1007.1hPa Calm     95% 0in /  0.0mm 0 W/m2
05:02 46.9 °F /  8.3 °C 45.5 °F /  7.5 °C 29.7in /  1007.1hPa Calm     95% 0in /  0.0mm 0 W/m2
05:07 46.9 °F /  8.3 °C 45.5 °F /  7.5 °C 29.7in /  1007.1hPa Calm     95% 0in /  0.0mm 0 W/m2
05:12 46.9 °F /  8.3 °C 45.5 °F /  7.5 °C 29.7in /  1007.1hPa Calm     95% 0in /  0.0mm 0 W/m2
05:17 46.9 °F /  8.3 °C 45.5 °F /  7.5 °C 29.7in /  1007.1hPa Calm     95% 0in /  0.0mm 0 W/m2
05:22 46.9 °F /  8.3 °C 45.5 °F /  7.5 °C 29.7in /  1007.1hPa Calm     95% 0in /  0.0mm 0 W/m2
05:27 46.9 °F /  8.3 °C 45.5 °F /  7.5 °C 29.7in /  1006.8hPa Calm     95% 0in /  0.0mm 0 W/m2
05:32 47.1 °F /  8.4 °C 45.7 °F /  7.6 °C 29.7in /  1006.8hPa Calm     95% 0in /  0.0mm 0 W/m2
05:37 47.1 °F /  8.4 °C 45.7 °F /  7.6 °C 29.7in /  1006.8hPa Calm     95% 0in /  0.0mm 0 W/m2
05:42 47.1 °F /  8.4 °C 46 °F /  7.8 °C 29.7in /  1007.1hPa Calm     96% 0in /  0.0mm 0 W/m2
05:47 47.1 °F /  8.4 °C 45.7 °F /  7.6 °C 29.7in /  1007.1hPa Calm     95% 0in /  0.0mm 0 W/m2
05:52 47.1 °F /  8.4 °C 45.7 °F /  7.6 °C 29.7in /  1006.8hPa Calm     95% 0in /  0.0mm 0 W/m2
05:57 47.1 °F /  8.4 °C 45.7 °F /  7.6 °C 29.7in /  1006.8hPa Calm     95% 0in /  0.0mm 0 W/m2
06:02 47.1 °F /  8.4 °C 45.7 °F /  7.6 °C 29.7in /  1006.8hPa Calm     95% 0in /  0.0mm 0 W/m2
06:07 46.9 °F /  8.3 °C 45.5 °F /  7.5 °C 29.7in /  1006.8hPa Calm     95% 0in /  0.0mm 0 W/m2
06:12 46.9 °F /  8.3 °C 45.5 °F /  7.5 °C 29.7in /  1006.8hPa Calm     95% 0in /  0.0mm 5 W/m2
06:17 46.9 °F /  8.3 °C 45.9 °F /  7.7 °C 29.7in /  1006.8hPa Calm     96% 0in /  0.0mm 5 W/m2
06:22 47.1 °F /  8.4 °C 46 °F /  7.8 °C 29.7in /  1006.8hPa Calm     96% 0in /  0.0mm 7 W/m2
06:27 46.9 °F /  8.3 °C 45.5 °F /  7.5 °C 29.7in /  1006.8hPa Calm     95% 0in /  0.0mm 9 W/m2
06:32 46.9 °F /  8.3 °C 45.5 °F /  7.5 °C 29.7in /  1006.8hPa Calm     95% 0in /  0.0mm 12 W/m2
06:37 46.9 °F /  8.3 °C 45.9 °F /  7.7 °C 29.7in /  1006.8hPa Calm     96% 0in /  0.0mm 16 W/m2
06:42 47.1 °F /  8.4 °C 46 °F /  7.8 °C 29.7in /  1006.8hPa Calm     96% 0in /  0.0mm 19 W/m2
06:47 47.1 °F /  8.4 °C 46 °F /  7.8 °C 29.7in /  1006.8hPa Calm     96% 0in /  0.0mm 23 W/m2
06:52 47.1 °F /  8.4 °C 46 °F /  7.8 °C 29.7in /  1006.8hPa Calm     96% 0in /  0.0mm 26 W/m2
06:57 47.5 °F /  8.6 °C 46.4 °F /  8 °C 29.7in /  1006.8hPa Calm     96% 0in /  0.0mm 28 W/m2
07:02 47.7 °F /  8.7 °C 46.6 °F /  8.1 °C 29.7in /  1006.8hPa Calm     96% 0in /  0.0mm 32 W/m2
07:07 48 °F /  8.9 °C 46.9 °F /  8.3 °C 29.7in /  1006.8hPa ESE 2mph /  3.2km/h 2mph /  3.2km/h 96% 0in /  0.0mm 33 W/m2
07:12 48.6 °F /  9.2 °C 47.5 °F /  8.6 °C 29.7in /  1006.8hPa ESE 0.9mph /  1.4km/h 2mph /  3.2km/h 96% 0in /  0.0mm 39 W/m2
07:17 48.7 °F /  9.3 °C 47.7 °F /  8.7 °C 29.7in /  1006.8hPa Calm     96% 0in /  0.0mm 40 W/m2
07:22 48.9 °F /  9.4 °C 47.8 °F /  8.8 °C 29.7in /  1006.8hPa Calm   2mph /  3.2km/h 96% 0in /  0.0mm 42 W/m2
07:27 48.9 °F /  9.4 °C 47.8 °F /  8.8 °C 29.7in /  1006.4hPa Calm     96% 0in /  0.0mm 44 W/m2
07:32 49.1 °F /  9.5 °C 48 °F /  8.9 °C 29.7in /  1006.4hPa Calm     96% 0in /  0.0mm 42 W/m2
07:37 49.5 °F /  9.7 °C 48.4 °F /  9.1 °C 29.7in /  1006.4hPa Calm     96% 0in /  0.0mm 44 W/m2
07:42 49.6 °F /  9.8 °C 48.6 °F /  9.2 °C 29.7in /  1006.4hPa Calm     96% 0in /  0.0mm 56 W/m2
07:47 49.8 °F /  9.9 °C 48.7 °F /  9.3 °C 29.7in /  1006.4hPa Calm     96% 0in /  0.0mm 53 W/m2
07:52 50.2 °F /  10.1 °C 49.3 °F /  9.6 °C 29.7in /  1006.4hPa Calm   2mph /  3.2km/h 97% 0in /  0.0mm 58 W/m2
07:57 50.5 °F /  10.3 °C 49.5 °F /  9.7 °C 29.7in /  1006.4hPa Calm     96% 0in /  0.0mm 62 W/m2
08:02 51.3 °F /  10.7 °C 50.4 °F /  10.2 °C 29.7in /  1006.4hPa Calm   2mph /  3.2km/h 97% 0in /  0.0mm 62 W/m2
08:07 51.6 °F /  10.9 °C 50.7 °F /  10.4 °C 29.7in /  1006.4hPa Calm   1mph /  1.6km/h 97% 0in /  0.0mm 56 W/m2
08:12 52.2 °F /  11.2 °C 51.1 °F /  10.6 °C 29.7in /  1006.1hPa Calm   1mph /  1.6km/h 96% 0in /  0.0mm 56 W/m2
08:17 53.2 °F /  11.8 °C 51.8 °F /  11 °C 29.7in /  1006.4hPa NE 0.9mph /  1.4km/h 2mph /  3.2km/h 95% 0in /  0.0mm 54 W/m2
08:22 54.1 °F /  12.3 °C 52.2 °F /  11.2 °C 29.7in /  1006.4hPa NE 0.9mph /  1.4km/h 2mph /  3.2km/h 93% 0in /  0.0mm 60 W/m2
08:27 55.2 °F /  12.9 °C 52.7 °F /  11.5 °C 29.7in /  1006.1hPa Calm   2mph /  3.2km/h 91% 0in /  0.0mm 63 W/m2
08:32 55.9 °F /  13.3 °C 52.5 °F /  11.4 °C 29.7in /  1006.1hPa ENE 2mph /  3.2km/h 2mph /  3.2km/h 88% 0in /  0.0mm 74 W/m2
08:37 56.8 °F /  13.8 °C 52.7 °F /  11.5 °C 29.7in /  1006.1hPa Calm   2mph /  3.2km/h 86% 0in /  0.0mm 97 W/m2
08:42 57.7 °F /  14.3 °C 52.9 °F /  11.6 °C 29.7in /  1006.1hPa NE 0.9mph /  1.4km/h 3mph /  4.8km/h 84% 0in /  0.0mm 188 W/m2
08:47 58.5 °F /  14.7 °C 52.7 °F /  11.5 °C 29.7in /  1006.1hPa NE 0.9mph /  1.4km/h 2mph /  3.2km/h 81% 0in /  0.0mm 264 W/m2
08:52 58.6 °F /  14.8 °C 52.5 °F /  11.4 °C 29.7in /  1005.8hPa ENE 2mph /  3.2km/h 2mph /  3.2km/h 80% 0in /  0.0mm 158 W/m2
08:57 58.8 °F /  14.9 °C 52.7 °F /  11.5 °C 29.7in /  1005.8hPa ENE 0.9mph /  1.4km/h 2mph /  3.2km/h 80% 0in /  0.0mm 227 W/m2
09:02 59.2 °F /  15.1 °C 52.7 °F /  11.5 °C 29.7in /  1005.8hPa ENE 2.9mph /  4.7km/h 3mph /  4.8km/h 79% 0in /  0.0mm 297 W/m2
09:07 59.4 °F /  15.2 °C 52.9 °F /  11.6 °C 29.7in /  1005.8hPa Calm   3mph /  4.8km/h 79% 0in /  0.0mm 216 W/m2
09:12 59.5 °F /  15.3 °C 53.1 °F /  11.7 °C 29.7in /  1005.8hPa ENE 0.9mph /  1.4km/h 3mph /  4.8km/h 79% 0in /  0.0mm 239 W/m2
09:17 59.7 °F /  15.4 °C 53.2 °F /  11.8 °C 29.7in /  1005.8hPa Calm   2mph /  3.2km/h 79% 0in /  0.0mm 309 W/m2
09:22 60.1 °F /  15.6 °C 53.6 °F /  12 °C 29.7in /  1005.8hPa Calm   3mph /  4.8km/h 79% 0in /  0.0mm 452 W/m2
09:27 60.4 °F /  15.8 °C 53.6 °F /  12 °C 29.7in /  1005.8hPa Calm   2mph /  3.2km/h 78% 0in /  0.0mm 411 W/m2
09:32 60.8 °F /  16 °C 54 °F /  12.2 °C 29.7in /  1005.8hPa North 0.9mph /  1.4km/h 1mph /  1.6km/h 78% 0in /  0.0mm 466 W/m2
09:37 61.2 °F /  16.2 °C 54 °F /  12.2 °C 29.7in /  1005.8hPa West 2mph /  3.2km/h 3mph /  4.8km/h 77% 0in /  0.0mm 397 W/m2
09:42 61.3 °F /  16.3 °C 54.1 °F /  12.3 °C 29.7in /  1005.8hPa NW 0.9mph /  1.4km/h 3mph /  4.8km/h 77% 0in /  0.0mm 91 W/m2
09:47 61.9 °F /  16.6 °C 53.8 °F /  12.1 °C 29.7in /  1005.4hPa Calm   2mph /  3.2km/h 75% 0in /  0.0mm 139 W/m2
09:52 62.2 °F /  16.8 °C 54.5 °F /  12.5 °C 29.7in /  1005.4hPa NNW 0.9mph /  1.4km/h 3mph /  4.8km/h 76% 0in /  0.0mm 512 W/m2
09:57 63 °F /  17.2 °C 54.9 °F /  12.7 °C 29.7in /  1005.4hPa NE 0.9mph /  1.4km/h 2mph /  3.2km/h 75% 0in /  0.0mm 534 W/m2
10:02 63.9 °F /  17.7 °C 55.4 °F /  13 °C 29.7in /  1005.1hPa ESE 0.9mph /  1.4km/h 2mph /  3.2km/h 74% 0in /  0.0mm 533 W/m2
10:07 64.8 °F /  18.2 °C 55.6 °F /  13.1 °C 29.7in /  1005.1hPa ENE 2.9mph /  4.7km/h 3mph /  4.8km/h 72% 0in /  0.0mm 608 W/m2
10:12 65.5 °F /  18.6 °C 56.3 °F /  13.5 °C 29.7in /  1005.1hPa Calm   2mph /  3.2km/h 72% 0in /  0.0mm 606 W/m2
10:17 66.4 °F /  19.1 °C 57 °F /  13.9 °C 29.7in /  1005.1hPa WNW 2mph /  3.2km/h 4mph /  6.4km/h 72% 0in /  0.0mm 629 W/m2
10:22 67.5 °F /  19.7 °C 57.4 °F /  14.1 °C 29.7in /  1005.1hPa NW 4mph /  6.4km/h 4mph /  6.4km/h 70% 0in /  0.0mm 657 W/m2
10:27 68.5 °F /  20.3 °C 57.2 °F /  14 °C 29.7in /  1004.7hPa WSW 0.9mph /  1.4km/h 2mph /  3.2km/h 67% 0in /  0.0mm 524 W/m2
10:32 69.6 °F /  20.9 °C 56.8 °F /  13.8 °C 29.7in /  1004.7hPa NE 0.9mph /  1.4km/h 4mph /  6.4km/h 64% 0in /  0.0mm 468 W/m2
10:37 70.5 °F /  21.4 °C 55.6 °F /  13.1 °C 29.7in /  1004.7hPa ENE 4mph /  6.4km/h 6mph /  9.7km/h 59% 0in /  0.0mm 322 W/m2
10:42 71.2 °F /  21.8 °C 54.7 °F /  12.6 °C 29.7in /  1004.4hPa East 11mph /  17.7km/h 11mph /  17.7km/h 56% 0in /  0.0mm 619 W/m2
10:47 71.8 °F /  22.1 °C 55.2 °F /  12.9 °C 29.7in /  1004.4hPa NNE 2mph /  3.2km/h 2mph /  3.2km/h 56% 0in /  0.0mm 657 W/m2
10:52 72.7 °F /  22.6 °C 55.6 °F /  13.1 °C 29.7in /  1004.1hPa NE 0.9mph /  1.4km/h 8mph /  12.9km/h 55% 0in /  0.0mm 754 W/m2
10:57 73 °F /  22.8 °C 54.9 °F /  12.7 °C 29.7in /  1004.1hPa East 2mph /  3.2km/h 5mph /  8km/h 53% 0in /  0.0mm 635 W/m2
11:02 73.4 °F /  23 °C 54.7 °F /  12.6 °C 29.7in /  1004.1hPa East 2.9mph /  4.7km/h 4mph /  6.4km/h 52% 0in /  0.0mm 650 W/m2
11:07 73.8 °F /  23.2 °C 55 °F /  12.8 °C 29.7in /  1004.1hPa ESE 6mph /  9.7km/h 11mph /  17.7km/h 52% 0in /  0.0mm 740 W/m2
11:12 74.1 °F /  23.4 °C 55.9 °F /  13.3 °C 29.7in /  1004.1hPa East 4.9mph /  7.9km/h 5mph /  8km/h 53% 0in /  0.0mm 418 W/m2
11:17 74.5 °F /  23.6 °C 55.8 °F /  13.2 °C 29.7in /  1004.1hPa ENE 6mph /  9.7km/h 8mph /  12.9km/h 52% 0in /  0.0mm 775 W/m2
11:22 74.7 °F /  23.7 °C 55.4 °F /  13 °C 29.7in /  1004.4hPa ENE 4.9mph /  7.9km/h 5mph /  8km/h 51% 0in /  0.0mm 710 W/m2
11:27 75 °F /  23.9 °C 55.6 °F /  13.1 °C 29.7in /  1004.1hPa SSW 2mph /  3.2km/h 7mph /  11.3km/h 51% 0in /  0.0mm 733 W/m2
11:32 75.2 °F /  24 °C 55.8 °F /  13.2 °C 29.7in /  1004.1hPa North 4.9mph /  7.9km/h 8mph /  12.9km/h 51% 0in /  0.0mm 784 W/m2
11:37 75.6 °F /  24.2 °C 55.6 °F /  13.1 °C 29.7in /  1004.1hPa ESE 2mph /  3.2km/h 5mph /  8km/h 50% 0in /  0.0mm 802 W/m2
11:42 75.9 °F /  24.4 °C 55.4 °F /  13 °C 29.7in /  1004.1hPa ENE 6mph /  9.7km/h 6mph /  9.7km/h 49% 0in /  0.0mm 756 W/m2
11:47 76.3 °F /  24.6 °C 55.8 °F /  13.2 °C 29.7in /  1004.4hPa ENE 4mph /  6.4km/h 9mph /  14.5km/h 49% 0in /  0.0mm 744 W/m2
11:52 76.3 °F /  24.6 °C 54.5 °F /  12.5 °C 29.7in /  1004.4hPa South 4mph /  6.4km/h 8mph /  12.9km/h 47% 0in /  0.0mm 721 W/m2
11:57 76.1 °F /  24.5 °C 55 °F /  12.8 °C 29.7in /  1004.1hPa NE 2.9mph /  4.7km/h 6mph /  9.7km/h 48% 0in /  0.0mm 701 W/m2
12:02 76.3 °F /  24.6 °C 54.5 °F /  12.5 °C 29.7in /  1004.1hPa NNW 8.9mph /  14.3km/h 10mph /  16.1km/h 47% 0in /  0.0mm 914 W/m2
12:07 75.9 °F /  24.4 °C 54.3 °F /  12.4 °C 29.7in /  1004.4hPa NW 0.9mph /  1.4km/h 11mph /  17.7km/h 47% 0in /  0.0mm 529 W/m2
12:12 75.7 °F /  24.3 °C 53.4 °F /  11.9 °C 29.7in /  1004.4hPa NNW 4.9mph /  7.9km/h 9mph /  14.5km/h 46% 0in /  0.0mm 552 W/m2
12:17 75.6 °F /  24.2 °C 54 °F /  12.2 °C 29.7in /  1004.1hPa NE 4.9mph /  7.9km/h 9mph /  14.5km/h 47% 0in /  0.0mm 670 W/m2
12:22 75.4 °F /  24.1 °C 54.3 °F /  12.4 °C 29.7in /  1004.4hPa NW 4.9mph /  7.9km/h 6mph /  9.7km/h 48% 0in /  0.0mm 621 W/m2
12:27 75.6 °F /  24.2 °C 54.5 °F /  12.5 °C 29.7in /  1004.7hPa WNW 8.9mph /  14.3km/h 12mph /  19.3km/h 48% 0in /  0.0mm 403 W/m2
12:32 75.2 °F /  24 °C 54.1 °F /  12.3 °C 29.7in /  1004.1hPa NNW 0.9mph /  1.4km/h 10mph /  16.1km/h 48% 0in /  0.0mm 346 W/m2
12:37 75 °F /  23.9 °C 54.5 °F /  12.5 °C 29.7in /  1004.4hPa North 2.9mph /  4.7km/h 16mph /  25.7km/h 49% 0in /  0.0mm 418 W/m2
12:42 75 °F /  23.9 °C 54 °F /  12.2 °C 29.7in /  1004.4hPa ENE 2.9mph /  4.7km/h 5mph /  8km/h 48% 0in /  0.0mm 591 W/m2
12:47 75.6 °F /  24.2 °C 54.5 °F /  12.5 °C 29.7in /  1004.1hPa WNW 2.9mph /  4.7km/h 7mph /  11.3km/h 48% 0in /  0.0mm 896 W/m2
12:52 75.9 °F /  24.4 °C 56.5 °F /  13.6 °C 29.7in /  1004.1hPa NW 2mph /  3.2km/h 4mph /  6.4km/h 51% 0in /  0.0mm 905 W/m2
13:02 76.8 °F /  24.9 °C 55 °F /  12.8 °C 29.7in /  1004.1hPa NW 2.9mph /  4.7km/h 8mph /  12.9km/h 47% 0in /  0.0mm 786 W/m2
Juneau County Weather
Compliments of Weather Underground - 2 mb